Kenora, Canada
Current Conditions -  °F | °C
As of 6:00 AM on Monday 24 Nov 2014 (Local Time) from CYQK Reporting Station
Light Snow Light Snow  
Wind Chill: -4°   Ceiling: 1500
Heat Index: 10°   Visibility: 10mi
Dew Point:   Wind: 12mph
Humidity: 85%   Direction: 360°N
Pressure: 29.52"   Gusts: 22mph
Location:  49.77°N, 94.46°W
Report Text: CYQK 241200Z 36010G19KT 320V040 10SM -SN OVC015 M12/M14 A2952 RMK SC8 SLP021
Loading
Personal Weather Stations






























Interactive Weather Map New forecast layout! Learn more

10-Day Weather Forecast

Advertisements
Track Severe Weather on mobile